sensor_id;sensor_type;location;lat;lon;timestamp;P1;durP1;ratioP1;P2;durP2;ratioP2
8654;SDS011;13500;52.514;13.462;2024-03-07T00:01:37;102.53;;;40.43;;
8654;SDS011;13500;52.514;13.462;2024-03-07T00:04:07;98.27;;;41.57;;
8654;SDS011;13500;52.514;13.462;2024-03-07T00:06:35;96.07;;;40.87;;
8654;SDS011;13500;52.514;13.462;2024-03-07T00:09:03;100.27;;;39.20;;
8654;SDS011;13500;52.514;13.462;2024-03-07T00:11:31;94.40;;;39.47;;
8654;SDS011;13500;52.514;13.462;2024-03-07T00:14:00;94.13;;;39.30;;
8654;SDS011;13500;52.514;13.462;2024-03-07T00:16:28;94.17;;;39.50;;
8654;SDS011;13500;52.514;13.462;2024-03-07T00:18:56;96.07;;;38.83;;
8654;SDS011;13500;52.514;13.462;2024-03-07T00:21:26;98.20;;;39.83;;
8654;SDS011;13500;52.514;13.462;2024-03-07T00:23:54;96.53;;;39.37;;
8654;SDS011;13500;52.514;13.462;2024-03-07T00:26:22;97.67;;;38.70;;
8654;SDS011;13500;52.514;13.462;2024-03-07T00:28:50;83.13;;;36.67;;
8654;SDS011;13500;52.514;13.462;2024-03-07T00:31:18;90.37;;;38.40;;
8654;SDS011;13500;52.514;13.462;2024-03-07T00:33:47;93.63;;;37.17;;
8654;SDS011;13500;52.514;13.462;2024-03-07T00:36:36;90.70;;;37.07;;
8654;SDS011;13500;52.514;13.462;2024-03-07T00:39:05;99.67;;;38.60;;
8654;SDS011;13500;52.514;13.462;2024-03-07T00:41:35;97.20;;;36.93;;
8654;SDS011;13500;52.514;13.462;2024-03-07T00:44:03;88.93;;;37.90;;
8654;SDS011;13500;52.514;13.462;2024-03-07T00:46:31;80.33;;;35.57;;
8654;SDS011;13500;52.514;13.462;2024-03-07T00:48:59;94.53;;;38.57;;
8654;SDS011;13500;52.514;13.462;2024-03-07T00:51:27;90.67;;;35.40;;
8654;SDS011;13500;52.514;13.462;2024-03-07T00:53:57;85.10;;;36.73;;
8654;SDS011;13500;52.514;13.462;2024-03-07T00:56:25;88.57;;;38.63;;
8654;SDS011;13500;52.514;13.462;2024-03-07T00:58:55;98.20;;;37.20;;
8654;SDS011;13500;52.514;13.462;2024-03-07T01:01:24;89.40;;;39.10;;
8654;SDS011;13500;52.514;13.462;2024-03-07T01:03:52;93.73;;;37.20;;
8654;SDS011;13500;52.514;13.462;2024-03-07T01:06:20;96.90;;;37.70;;
8654;SDS011;13500;52.514;13.462;2024-03-07T01:08:48;86.83;;;37.90;;
8654;SDS011;13500;52.514;13.462;2024-03-07T01:11:18;86.60;;;37.87;;
8654;SDS011;13500;52.514;13.462;2024-03-07T01:13:47;87.67;;;36.50;;
8654;SDS011;13500;52.514;13.462;2024-03-07T01:16:15;92.47;;;37.50;;
8654;SDS011;13500;52.514;13.462;2024-03-07T01:18:43;94.37;;;38.50;;
8654;SDS011;13500;52.514;13.462;2024-03-07T01:21:11;93.00;;;37.43;;
8654;SDS011;13500;52.514;13.462;2024-03-07T01:23:40;85.77;;;35.90;;
8654;SDS011;13500;52.514;13.462;2024-03-07T01:26:08;82.30;;;34.87;;
8654;SDS011;13500;52.514;13.462;2024-03-07T01:28:38;90.60;;;36.13;;
8654;SDS011;13500;52.514;13.462;2024-03-07T01:31:08;89.30;;;37.27;;
8654;SDS011;13500;52.514;13.462;2024-03-07T01:33:36;85.83;;;37.43;;
8654;SDS011;13500;52.514;13.462;2024-03-07T01:36:05;86.63;;;35.50;;
8654;SDS011;13500;52.514;13.462;2024-03-07T01:38:33;87.67;;;37.07;;
8654;SDS011;13500;52.514;13.462;2024-03-07T01:41:03;97.10;;;37.17;;
8654;SDS011;13500;52.514;13.462;2024-03-07T01:43:31;90.13;;;36.33;;
8654;SDS011;13500;52.514;13.462;2024-03-07T01:46:01;88.53;;;38.13;;
8654;SDS011;13500;52.514;13.462;2024-03-07T01:48:29;84.13;;;34.30;;
8654;SDS011;13500;52.514;13.462;2024-03-07T01:50:58;91.80;;;36.10;;
8654;SDS011;13500;52.514;13.462;2024-03-07T01:53:27;66.93;;;33.27;;
8654;SDS011;13500;52.514;13.462;2024-03-07T01:55:56;74.07;;;33.93;;
8654;SDS011;13500;52.514;13.462;2024-03-07T01:58:25;75.30;;;34.47;;
8654;SDS011;13500;52.514;13.462;2024-03-07T02:00:53;78.37;;;35.20;;
8654;SDS011;13500;52.514;13.462;2024-03-07T02:03:22;84.70;;;34.03;;
8654;SDS011;13500;52.514;13.462;2024-03-07T02:05:50;75.47;;;32.60;;
8654;SDS011;13500;52.514;13.462;2024-03-07T02:08:19;81.53;;;31.70;;
8654;SDS011;13500;52.514;13.462;2024-03-07T02:10:47;79.13;;;32.30;;
8654;SDS011;13500;52.514;13.462;2024-03-07T02:13:16;79.43;;;32.77;;
8654;SDS011;13500;52.514;13.462;2024-03-07T02:15:45;76.60;;;34.13;;
8654;SDS011;13500;52.514;13.462;2024-03-07T02:18:13;79.87;;;34.67;;
8654;SDS011;13500;52.514;13.462;2024-03-07T02:20:44;82.00;;;35.23;;
8654;SDS011;13500;52.514;13.462;2024-03-07T02:23:12;90.13;;;35.03;;
8654;SDS011;13500;52.514;13.462;2024-03-07T02:25:41;87.57;;;35.70;;
8654;SDS011;13500;52.514;13.462;2024-03-07T02:28:09;88.50;;;35.00;;
8654;SDS011;13500;52.514;13.462;2024-03-07T02:30:37;87.67;;;35.90;;
8654;SDS011;13500;52.514;13.462;2024-03-07T02:33:05;97.10;;;37.47;;
8654;SDS011;13500;52.514;13.462;2024-03-07T02:35:34;87.00;;;36.93;;
8654;SDS011;13500;52.514;13.462;2024-03-07T02:38:04;82.97;;;35.20;;
8654;SDS011;13500;52.514;13.462;2024-03-07T02:40:32;90.17;;;38.20;;
8654;SDS011;13500;52.514;13.462;2024-03-07T02:43:00;86.83;;;40.03;;
8654;SDS011;13500;52.514;13.462;2024-03-07T02:45:31;86.77;;;39.53;;
8654;SDS011;13500;52.514;13.462;2024-03-07T02:48:00;96.70;;;40.33;;
8654;SDS011;13500;52.514;13.462;2024-03-07T02:50:28;95.50;;;41.43;;
8654;SDS011;13500;52.514;13.462;2024-03-07T02:52:56;80.33;;;38.53;;
8654;SDS011;13500;52.514;13.462;2024-03-07T02:55:26;85.83;;;41.00;;
8654;SDS011;13500;52.514;13.462;2024-03-07T02:57:54;88.07;;;39.53;;
8654;SDS011;13500;52.514;13.462;2024-03-07T03:00:25;90.53;;;39.37;;
8654;SDS011;13500;52.514;13.462;2024-03-07T03:02:56;85.17;;;39.87;;
8654;SDS011;13500;52.514;13.462;2024-03-07T03:05:24;90.37;;;40.73;;
8654;SDS011;13500;52.514;13.462;2024-03-07T03:07:52;83.83;;;37.93;;
8654;SDS011;13500;52.514;13.462;2024-03-07T03:10:21;78.17;;;38.53;;
8654;SDS011;13500;52.514;13.462;2024-03-07T03:12:57;91.40;;;40.37;;
8654;SDS011;13500;52.514;13.462;2024-03-07T03:15:26;77.70;;;38.33;;
8654;SDS011;13500;52.514;13.462;2024-03-07T03:17:55;86.23;;;39.87;;
8654;SDS011;13500;52.514;13.462;2024-03-07T03:20:26;88.70;;;39.67;;
8654;SDS011;13500;52.514;13.462;2024-03-07T03:23:01;86.67;;;37.70;;
8654;SDS011;13500;52.514;13.462;2024-03-07T03:25:46;85.53;;;39.63;;
8654;SDS011;13500;52.514;13.462;2024-03-07T03:28:17;76.00;;;36.40;;
8654;SDS011;13500;52.514;13.462;2024-03-07T03:30:48;84.03;;;37.73;;
8654;SDS011;13500;52.514;13.462;2024-03-07T03:33:16;73.27;;;38.53;;
8654;SDS011;13500;52.514;13.462;2024-03-07T03:35:45;71.67;;;35.17;;
8654;SDS011;13500;52.514;13.462;2024-03-07T03:38:13;73.03;;;36.23;;
8654;SDS011;13500;52.514;13.462;2024-03-07T03:40:42;72.07;;;34.83;;
8654;SDS011;13500;52.514;13.462;2024-03-07T03:43:11;70.63;;;34.93;;
8654;SDS011;13500;52.514;13.462;2024-03-07T03:45:40;65.63;;;34.67;;
8654;SDS011;13500;52.514;13.462;2024-03-07T03:48:09;71.77;;;34.83;;
8654;SDS011;13500;52.514;13.462;2024-03-07T03:50:37;68.83;;;34.77;;
8654;SDS011;13500;52.514;13.462;2024-03-07T03:53:05;67.13;;;32.50;;
8654;SDS011;13500;52.514;13.462;2024-03-07T03:55:34;61.30;;;33.30;;
8654;SDS011;13500;52.514;13.462;2024-03-07T03:58:03;64.77;;;32.33;;
8654;SDS011;13500;52.514;13.462;2024-03-07T04:00:32;60.67;;;31.57;;
8654;SDS011;13500;52.514;13.462;2024-03-07T04:03:02;55.30;;;31.80;;
8654;SDS011;13500;52.514;13.462;2024-03-07T04:05:30;60.03;;;32.60;;
8654;SDS011;13500;52.514;13.462;2024-03-07T04:07:59;63.13;;;32.13;;
8654;SDS011;13500;52.514;13.462;2024-03-07T04:10:27;59.17;;;32.60;;
8654;SDS011;13500;52.514;13.462;2024-03-07T04:12:55;57.13;;;30.97;;
8654;SDS011;13500;52.514;13.462;2024-03-07T04:15:24;52.47;;;30.23;;
8654;SDS011;13500;52.514;13.462;2024-03-07T04:17:53;58.97;;;30.97;;
8654;SDS011;13500;52.514;13.462;2024-03-07T04:20:24;54.43;;;30.80;;
8654;SDS011;13500;52.514;13.462;2024-03-07T04:22:52;53.57;;;29.77;;
8654;SDS011;13500;52.514;13.462;2024-03-07T04:25:22;52.20;;;29.93;;
8654;SDS011;13500;52.514;13.462;2024-03-07T04:27:51;54.43;;;30.90;;
8654;SDS011;13500;52.514;13.462;2024-03-07T04:30:20;51.57;;;30.10;;
8654;SDS011;13500;52.514;13.462;2024-03-07T04:32:48;54.50;;;29.93;;
8654;SDS011;13500;52.514;13.462;2024-03-07T04:35:16;52.33;;;29.60;;
8654;SDS011;13500;52.514;13.462;2024-03-07T04:37:47;51.70;;;29.60;;
8654;SDS011;13500;52.514;13.462;2024-03-07T04:40:15;55.77;;;30.33;;
8654;SDS011;13500;52.514;13.462;2024-03-07T04:42:46;49.73;;;29.60;;
8654;SDS011;13500;52.514;13.462;2024-03-07T04:45:16;46.23;;;29.43;;
8654;SDS011;13500;52.514;13.462;2024-03-07T04:47:45;49.97;;;29.13;;
8654;SDS011;13500;52.514;13.462;2024-03-07T04:50:15;51.37;;;29.47;;
8654;SDS011;13500;52.514;13.462;2024-03-07T04:52:47;49.00;;;28.80;;
8654;SDS011;13500;52.514;13.462;2024-03-07T04:55:16;49.80;;;29.07;;
8654;SDS011;13500;52.514;13.462;2024-03-07T04:57:45;46.93;;;30.27;;
8654;SDS011;13500;52.514;13.462;2024-03-07T05:00:14;45.80;;;29.13;;
8654;SDS011;13500;52.514;13.462;2024-03-07T05:02:46;53.63;;;29.50;;
8654;SDS011;13500;52.514;13.462;2024-03-07T05:05:15;46.83;;;29.37;;
8654;SDS011;13500;52.514;13.462;2024-03-07T05:07:50;51.33;;;30.13;;
8654;SDS011;13500;52.514;13.462;2024-03-07T05:10:19;52.37;;;29.30;;
8654;SDS011;13500;52.514;13.462;2024-03-07T05:12:48;47.33;;;28.80;;
8654;SDS011;13500;52.514;13.462;2024-03-07T05:15:17;50.97;;;29.37;;
8654;SDS011;13500;52.514;13.462;2024-03-07T05:17:46;48.87;;;29.47;;
8654;SDS011;13500;52.514;13.462;2024-03-07T05:20:14;48.53;;;28.80;;
8654;SDS011;13500;52.514;13.462;2024-03-07T05:22:43;50.27;;;30.70;;
8654;SDS011;13500;52.514;13.462;2024-03-07T05:25:19;46.27;;;28.23;;
8654;SDS011;13500;52.514;13.462;2024-03-07T05:27:49;52.07;;;30.30;;
8654;SDS011;13500;52.514;13.462;2024-03-07T05:30:18;51.23;;;30.67;;
8654;SDS011;13500;52.514;13.462;2024-03-07T05:32:48;51.70;;;31.67;;
8654;SDS011;13500;52.514;13.462;2024-03-07T05:35:17;56.07;;;29.53;;
8654;SDS011;13500;52.514;13.462;2024-03-07T05:37:48;52.77;;;30.00;;
8654;SDS011;13500;52.514;13.462;2024-03-07T05:40:20;51.27;;;28.77;;
8654;SDS011;13500;52.514;13.462;2024-03-07T05:42:48;51.63;;;30.07;;
8654;SDS011;13500;52.514;13.462;2024-03-07T05:45:16;51.23;;;30.70;;
8654;SDS011;13500;52.514;13.462;2024-03-07T05:47:45;51.57;;;29.77;;
8654;SDS011;13500;52.514;13.462;2024-03-07T05:50:16;46.87;;;29.43;;
8654;SDS011;13500;52.514;13.462;2024-03-07T05:52:45;45.20;;;28.90;;
8654;SDS011;13500;52.514;13.462;2024-03-07T05:55:15;48.50;;;28.57;;
8654;SDS011;13500;52.514;13.462;2024-03-07T05:57:47;43.13;;;28.47;;
8654;SDS011;13500;52.514;13.462;2024-03-07T06:00:16;44.40;;;27.40;;
8654;SDS011;13500;52.514;13.462;2024-03-07T06:02:54;43.03;;;25.80;;
8654;SDS011;13500;52.514;13.462;2024-03-07T06:05:23;46.00;;;27.43;;
8654;SDS011;13500;52.514;13.462;2024-03-07T06:07:51;43.63;;;26.70;;
8654;SDS011;13500;52.514;13.462;2024-03-07T06:10:20;41.83;;;26.00;;
8654;SDS011;13500;52.514;13.462;2024-03-07T06:12:52;44.63;;;25.77;;
8654;SDS011;13500;52.514;13.462;2024-03-07T06:15:36;43.50;;;25.70;;
8654;SDS011;13500;52.514;13.462;2024-03-07T06:18:05;38.43;;;25.73;;
8654;SDS011;13500;52.514;13.462;2024-03-07T06:20:35;43.20;;;25.77;;
8654;SDS011;13500;52.514;13.462;2024-03-07T06:23:03;37.33;;;23.03;;
8654;SDS011;13500;52.514;13.462;2024-03-07T06:25:32;34.87;;;22.77;;
8654;SDS011;13500;52.514;13.462;2024-03-07T06:28:06;32.97;;;22.17;;
8654;SDS011;13500;52.514;13.462;2024-03-07T06:30:38;35.50;;;22.53;;
8654;SDS011;13500;52.514;13.462;2024-03-07T06:33:08;34.73;;;22.13;;
8654;SDS011;13500;52.514;13.462;2024-03-07T06:35:36;33.63;;;20.50;;
8654;SDS011;13500;52.514;13.462;2024-03-07T06:38:05;35.07;;;21.37;;
8654;SDS011;13500;52.514;13.462;2024-03-07T06:40:35;31.43;;;20.40;;
8654;SDS011;13500;52.514;13.462;2024-03-07T06:43:03;32.87;;;20.93;;
8654;SDS011;13500;52.514;13.462;2024-03-07T06:45:35;31.57;;;18.30;;
8654;SDS011;13500;52.514;13.462;2024-03-07T06:48:04;31.70;;;19.03;;
8654;SDS011;13500;52.514;13.462;2024-03-07T06:50:33;41.67;;;19.70;;
8654;SDS011;13500;52.514;13.462;2024-03-07T06:53:04;28.83;;;19.00;;
8654;SDS011;13500;52.514;13.462;2024-03-07T06:55:35;27.63;;;18.20;;
8654;SDS011;13500;52.514;13.462;2024-03-07T06:58:04;28.83;;;19.03;;
8654;SDS011;13500;52.514;13.462;2024-03-07T07:00:34;25.50;;;18.47;;
8654;SDS011;13500;52.514;13.462;2024-03-07T07:03:04;25.13;;;18.33;;
8654;SDS011;13500;52.514;13.462;2024-03-07T07:05:35;27.57;;;18.63;;
8654;SDS011;13500;52.514;13.462;2024-03-07T07:08:05;22.87;;;17.97;;
8654;SDS011;13500;52.514;13.462;2024-03-07T07:10:34;24.57;;;17.33;;
8654;SDS011;13500;52.514;13.462;2024-03-07T07:13:02;24.50;;;16.93;;
8654;SDS011;13500;52.514;13.462;2024-03-07T07:15:32;21.17;;;16.17;;
8654;SDS011;13500;52.514;13.462;2024-03-07T07:18:03;22.73;;;16.53;;
8654;SDS011;13500;52.514;13.462;2024-03-07T07:20:32;23.57;;;17.00;;
8654;SDS011;13500;52.514;13.462;2024-03-07T07:23:01;21.07;;;16.63;;
8654;SDS011;13500;52.514;13.462;2024-03-07T07:25:30;24.73;;;16.60;;
8654;SDS011;13500;52.514;13.462;2024-03-07T07:27:59;18.67;;;16.10;;
8654;SDS011;13500;52.514;13.462;2024-03-07T07:30:27;22.80;;;17.23;;
8654;SDS011;13500;52.514;13.462;2024-03-07T07:32:55;18.47;;;16.30;;
8654;SDS011;13500;52.514;13.462;2024-03-07T07:35:25;20.37;;;15.70;;
8654;SDS011;13500;52.514;13.462;2024-03-07T07:37:53;19.63;;;15.63;;
8654;SDS011;13500;52.514;13.462;2024-03-07T07:40:23;20.80;;;16.27;;
8654;SDS011;13500;52.514;13.462;2024-03-07T07:42:54;20.40;;;15.67;;
8654;SDS011;13500;52.514;13.462;2024-03-07T07:45:26;18.03;;;15.40;;
8654;SDS011;13500;52.514;13.462;2024-03-07T07:47:55;22.10;;;15.60;;
8654;SDS011;13500;52.514;13.462;2024-03-07T07:50:25;17.37;;;14.27;;
8654;SDS011;13500;52.514;13.462;2024-03-07T07:52:53;17.77;;;14.60;;
8654;SDS011;13500;52.514;13.462;2024-03-07T07:55:23;24.07;;;15.87;;
8654;SDS011;13500;52.514;13.462;2024-03-07T07:57:52;23.33;;;15.97;;
8654;SDS011;13500;52.514;13.462;2024-03-07T08:00:22;25.00;;;14.60;;
8654;SDS011;13500;52.514;13.462;2024-03-07T08:02:52;17.70;;;14.43;;
8654;SDS011;13500;52.514;13.462;2024-03-07T08:05:22;21.00;;;14.93;;
8654;SDS011;13500;52.514;13.462;2024-03-07T08:07:52;19.77;;;14.20;;
8654;SDS011;13500;52.514;13.462;2024-03-07T08:10:23;16.43;;;14.50;;
8654;SDS011;13500;52.514;13.462;2024-03-07T08:12:52;16.93;;;15.13;;
8654;SDS011;13500;52.514;13.462;2024-03-07T08:15:20;17.00;;;14.93;;
8654;SDS011;13500;52.514;13.462;2024-03-07T08:17:50;22.30;;;14.80;;
8654;SDS011;13500;52.514;13.462;2024-03-07T08:20:19;15.27;;;13.60;;
8654;SDS011;13500;52.514;13.462;2024-03-07T08:22:49;17.67;;;14.03;;
8654;SDS011;13500;52.514;13.462;2024-03-07T08:25:21;19.73;;;14.90;;
8654;SDS011;13500;52.514;13.462;2024-03-07T08:27:51;16.20;;;13.77;;
8654;SDS011;13500;52.514;13.462;2024-03-07T08:30:20;18.40;;;13.90;;
8654;SDS011;13500;52.514;13.462;2024-03-07T08:32:50;19.57;;;14.40;;
8654;SDS011;13500;52.514;13.462;2024-03-07T08:35:19;17.17;;;13.53;;
8654;SDS011;13500;52.514;13.462;2024-03-07T08:37:48;16.60;;;14.00;;
8654;SDS011;13500;52.514;13.462;2024-03-07T08:40:22;15.87;;;13.33;;
8654;SDS011;13500;52.514;13.462;2024-03-07T08:42:55;15.30;;;13.00;;
8654;SDS011;13500;52.514;13.462;2024-03-07T08:45:24;16.73;;;13.37;;
8654;SDS011;13500;52.514;13.462;2024-03-07T08:47:54;16.33;;;13.20;;
8654;SDS011;13500;52.514;13.462;2024-03-07T08:50:27;15.17;;;13.57;;
8654;SDS011;13500;52.514;13.462;2024-03-07T08:52:56;14.60;;;12.53;;
8654;SDS011;13500;52.514;13.462;2024-03-07T08:55:26;16.87;;;13.33;;
8654;SDS011;13500;52.514;13.462;2024-03-07T08:57:54;14.30;;;12.67;;
8654;SDS011;13500;52.514;13.462;2024-03-07T09:00:22;17.10;;;13.37;;
8654;SDS011;13500;52.514;13.462;2024-03-07T09:02:53;14.73;;;12.40;;
8654;SDS011;13500;52.514;13.462;2024-03-07T09:05:27;14.07;;;12.57;;
8654;SDS011;13500;52.514;13.462;2024-03-07T09:07:56;14.53;;;13.13;;
8654;SDS011;13500;52.514;13.462;2024-03-07T09:10:27;13.90;;;12.50;;
8654;SDS011;13500;52.514;13.462;2024-03-07T09:13:00;15.63;;;12.13;;
8654;SDS011;13500;52.514;13.462;2024-03-07T09:15:29;13.57;;;11.93;;
8654;SDS011;13500;52.514;13.462;2024-03-07T09:17:58;15.70;;;12.73;;
8654;SDS011;13500;52.514;13.462;2024-03-07T09:20:30;13.63;;;11.83;;
8654;SDS011;13500;52.514;13.462;2024-03-07T09:22:59;14.87;;;12.20;;
8654;SDS011;13500;52.514;13.462;2024-03-07T09:25:28;14.13;;;12.67;;
8654;SDS011;13500;52.514;13.462;2024-03-07T09:28:00;14.90;;;11.90;;
8654;SDS011;13500;52.514;13.462;2024-03-07T09:30:29;13.47;;;12.00;;
8654;SDS011;13500;52.514;13.462;2024-03-07T09:32:57;16.20;;;12.30;;
8654;SDS011;13500;52.514;13.462;2024-03-07T09:35:26;13.53;;;12.07;;
8654;SDS011;13500;52.514;13.462;2024-03-07T09:37:54;13.00;;;11.70;;
8654;SDS011;13500;52.514;13.462;2024-03-07T09:40:23;13.47;;;12.07;;
8654;SDS011;13500;52.514;13.462;2024-03-07T09:42:55;13.47;;;11.87;;
8654;SDS011;13500;52.514;13.462;2024-03-07T09:45:28;11.90;;;10.77;;
8654;SDS011;13500;52.514;13.462;2024-03-07T09:47:57;13.60;;;10.87;;
8654;SDS011;13500;52.514;13.462;2024-03-07T09:50:26;15.27;;;12.23;;
8654;SDS011;13500;52.514;13.462;2024-03-07T09:52:54;13.13;;;10.50;;
8654;SDS011;13500;52.514;13.462;2024-03-07T09:55:23;13.63;;;11.50;;
8654;SDS011;13500;52.514;13.462;2024-03-07T09:57:53;11.43;;;10.33;;
8654;SDS011;13500;52.514;13.462;2024-03-07T10:00:24;11.37;;;10.20;;
8654;SDS011;13500;52.514;13.462;2024-03-07T10:02:56;14.97;;;10.50;;
8654;SDS011;13500;52.514;13.462;2024-03-07T10:05:26;13.13;;;9.73;;
8654;SDS011;13500;52.514;13.462;2024-03-07T10:07:56;10.93;;;9.73;;
8654;SDS011;13500;52.514;13.462;2024-03-07T10:10:25;11.93;;;10.50;;
8654;SDS011;13500;52.514;13.462;2024-03-07T10:12:53;12.97;;;10.67;;
8654;SDS011;13500;52.514;13.462;2024-03-07T10:15:28;15.23;;;10.40;;
8654;SDS011;13500;52.514;13.462;2024-03-07T10:17:57;11.93;;;9.70;;
8654;SDS011;13500;52.514;13.462;2024-03-07T10:20:25;10.73;;;9.70;;
8654;SDS011;13500;52.514;13.462;2024-03-07T10:22:54;11.17;;;9.93;;
8654;SDS011;13500;52.514;13.462;2024-03-07T10:25:23;11.90;;;9.97;;
8654;SDS011;13500;52.514;13.462;2024-03-07T10:27:55;11.23;;;9.93;;
8654;SDS011;13500;52.514;13.462;2024-03-07T10:30:25;10.77;;;9.33;;
8654;SDS011;13500;52.514;13.462;2024-03-07T10:32:55;9.67;;;8.67;;
8654;SDS011;13500;52.514;13.462;2024-03-07T10:35:27;11.97;;;9.40;;
8654;SDS011;13500;52.514;13.462;2024-03-07T10:37:58;11.17;;;9.57;;
8654;SDS011;13500;52.514;13.462;2024-03-07T10:40:28;11.60;;;9.97;;
8654;SDS011;13500;52.514;13.462;2024-03-07T10:42:57;10.73;;;9.63;;
8654;SDS011;13500;52.514;13.462;2024-03-07T10:45:32;11.13;;;9.80;;
8654;SDS011;13500;52.514;13.462;2024-03-07T10:48:02;10.53;;;9.30;;
8654;SDS011;13500;52.514;13.462;2024-03-07T10:50:47;14.03;;;9.77;;
8654;SDS011;13500;52.514;13.462;2024-03-07T10:53:24;11.80;;;9.87;;
8654;SDS011;13500;52.514;13.462;2024-03-07T10:56:05;12.67;;;9.60;;
8654;SDS011;13500;52.514;13.462;2024-03-07T10:58:56;11.53;;;9.13;;
8654;SDS011;13500;52.514;13.462;2024-03-07T11:01:29;12.53;;;10.13;;
8654;SDS011;13500;52.514;13.462;2024-03-07T11:04:00;13.00;;;9.67;;
8654;SDS011;13500;52.514;13.462;2024-03-07T11:06:31;14.97;;;10.30;;
8654;SDS011;13500;52.514;13.462;2024-03-07T11:09:01;14.67;;;10.50;;
8654;SDS011;13500;52.514;13.462;2024-03-07T11:11:37;13.50;;;10.77;;
8654;SDS011;13500;52.514;13.462;2024-03-07T11:14:08;12.77;;;10.03;;
8654;SDS011;13500;52.514;13.462;2024-03-07T11:16:39;11.47;;;10.27;;
8654;SDS011;13500;52.514;13.462;2024-03-07T11:19:17;13.63;;;10.60;;
8654;SDS011;13500;52.514;13.462;2024-03-07T11:21:48;12.77;;;9.90;;
8654;SDS011;13500;52.514;13.462;2024-03-07T11:24:22;13.33;;;10.40;;
8654;SDS011;13500;52.514;13.462;2024-03-07T11:26:52;15.60;;;10.60;;
8654;SDS011;13500;52.514;13.462;2024-03-07T11:29:41;11.30;;;10.20;;
8654;SDS011;13500;52.514;13.462;2024-03-07T11:32:13;11.93;;;10.07;;
8654;SDS011;13500;52.514;13.462;2024-03-07T11:34:42;14.33;;;10.40;;
8654;SDS011;13500;52.514;13.462;2024-03-07T11:37:19;12.37;;;10.57;;
8654;SDS011;13500;52.514;13.462;2024-03-07T11:39:50;15.10;;;10.13;;
8654;SDS011;13500;52.514;13.462;2024-03-07T11:42:22;12.93;;;9.60;;
8654;SDS011;13500;52.514;13.462;2024-03-07T11:44:54;10.97;;;9.90;;
8654;SDS011;13500;52.514;13.462;2024-03-07T11:47:25;11.90;;;10.53;;
8654;SDS011;13500;52.514;13.462;2024-03-07T11:49:56;14.20;;;11.03;;
8654;SDS011;13500;52.514;13.462;2024-03-07T11:52:26;12.10;;;10.80;;
8654;SDS011;13500;52.514;13.462;2024-03-07T11:54:58;13.60;;;10.47;;
8654;SDS011;13500;52.514;13.462;2024-03-07T11:57:32;11.27;;;9.73;;
8654;SDS011;13500;52.514;13.462;2024-03-07T12:00:00;15.73;;;10.57;;
8654;SDS011;13500;52.514;13.462;2024-03-07T12:02:39;17.70;;;11.10;;
8654;SDS011;13500;52.514;13.462;2024-03-07T12:05:10;15.30;;;11.60;;
8654;SDS011;13500;52.514;13.462;2024-03-07T12:07:43;12.17;;;10.87;;
8654;SDS011;13500;52.514;13.462;2024-03-07T12:10:11;13.60;;;10.87;;
8654;SDS011;13500;52.514;13.462;2024-03-07T12:12:40;13.77;;;10.47;;
8654;SDS011;13500;52.514;13.462;2024-03-07T12:15:12;13.67;;;11.40;;
8654;SDS011;13500;52.514;13.462;2024-03-07T12:17:48;13.27;;;11.00;;
8654;SDS011;13500;52.514;13.462;2024-03-07T12:20:17;13.63;;;10.90;;
8654;SDS011;13500;52.514;13.462;2024-03-07T12:22:58;14.40;;;11.27;;
8654;SDS011;13500;52.514;13.462;2024-03-07T12:25:30;12.37;;;11.00;;
8654;SDS011;13500;52.514;13.462;2024-03-07T12:28:00;16.00;;;11.53;;
8654;SDS011;13500;52.514;13.462;2024-03-07T12:30:32;13.90;;;10.67;;
8654;SDS011;13500;52.514;13.462;2024-03-07T12:33:03;16.97;;;11.83;;
8654;SDS011;13500;52.514;13.462;2024-03-07T12:35:34;14.93;;;11.43;;
8654;SDS011;13500;52.514;13.462;2024-03-07T12:38:03;14.57;;;11.73;;
8654;SDS011;13500;52.514;13.462;2024-03-07T12:40:31;13.23;;;11.50;;
8654;SDS011;13500;52.514;13.462;2024-03-07T12:43:12;13.77;;;11.90;;
8654;SDS011;13500;52.514;13.462;2024-03-07T12:45:42;12.93;;;11.00;;
8654;SDS011;13500;52.514;13.462;2024-03-07T12:48:14;12.97;;;11.40;;
8654;SDS011;13500;52.514;13.462;2024-03-07T12:50:45;14.33;;;10.90;;
8654;SDS011;13500;52.514;13.462;2024-03-07T12:53:17;16.80;;;12.77;;
8654;SDS011;13500;52.514;13.462;2024-03-07T12:55:46;14.47;;;11.67;;
8654;SDS011;13500;52.514;13.462;2024-03-07T12:58:14;15.40;;;12.23;;
8654;SDS011;13500;52.514;13.462;2024-03-07T13:00:44;16.00;;;12.03;;
8654;SDS011;13500;52.514;13.462;2024-03-07T13:03:13;18.13;;;13.83;;
8654;SDS011;13500;52.514;13.462;2024-03-07T13:05:42;19.40;;;13.60;;
8654;SDS011;13500;52.514;13.462;2024-03-07T13:08:11;17.67;;;13.97;;
8654;SDS011;13500;52.514;13.462;2024-03-07T13:10:41;17.20;;;13.47;;
8654;SDS011;13500;52.514;13.462;2024-03-07T13:13:10;15.63;;;13.23;;
8654;SDS011;13500;52.514;13.462;2024-03-07T13:15:39;18.00;;;12.87;;
8654;SDS011;13500;52.514;13.462;2024-03-07T13:18:15;16.17;;;12.43;;
8654;SDS011;13500;52.514;13.462;2024-03-07T13:20:44;13.77;;;11.40;;
8654;SDS011;13500;52.514;13.462;2024-03-07T13:23:13;13.87;;;11.00;;
8654;SDS011;13500;52.514;13.462;2024-03-07T13:25:41;13.07;;;10.77;;
8654;SDS011;13500;52.514;13.462;2024-03-07T13:28:11;12.50;;;10.60;;
8654;SDS011;13500;52.514;13.462;2024-03-07T13:30:44;15.00;;;11.43;;
8654;SDS011;13500;52.514;13.462;2024-03-07T13:33:17;14.10;;;12.00;;
8654;SDS011;13500;52.514;13.462;2024-03-07T13:35:45;15.63;;;11.27;;
8654;SDS011;13500;52.514;13.462;2024-03-07T13:38:14;13.53;;;11.53;;
8654;SDS011;13500;52.514;13.462;2024-03-07T13:40:45;16.53;;;12.70;;
8654;SDS011;13500;52.514;13.462;2024-03-07T13:43:13;14.30;;;11.60;;
8654;SDS011;13500;52.514;13.462;2024-03-07T13:45:41;13.37;;;11.13;;
8654;SDS011;13500;52.514;13.462;2024-03-07T13:48:11;13.47;;;11.10;;
8654;SDS011;13500;52.514;13.462;2024-03-07T13:50:42;13.67;;;11.70;;
8654;SDS011;13500;52.514;13.462;2024-03-07T13:53:24;16.00;;;12.03;;
8654;SDS011;13500;52.514;13.462;2024-03-07T13:56:12;20.63;;;12.70;;
8654;SDS011;13500;52.514;13.462;2024-03-07T13:59:07;14.37;;;11.93;;
8654;SDS011;13500;52.514;13.462;2024-03-07T14:01:45;13.23;;;11.20;;
8654;SDS011;13500;52.514;13.462;2024-03-07T14:04:39;13.97;;;11.93;;
8654;SDS011;13500;52.514;13.462;2024-03-07T14:07:35;16.57;;;11.63;;
8654;SDS011;13500;52.514;13.462;2024-03-07T14:10:28;14.77;;;12.93;;
8654;SDS011;13500;52.514;13.462;2024-03-07T14:13:21;15.17;;;12.00;;
8654;SDS011;13500;52.514;13.462;2024-03-07T14:16:10;16.53;;;12.93;;
8654;SDS011;13500;52.514;13.462;2024-03-07T14:19:02;15.10;;;12.43;;
8654;SDS011;13500;52.514;13.462;2024-03-07T14:21:53;16.87;;;12.63;;
8654;SDS011;13500;52.514;13.462;2024-03-07T14:27:27;16.20;;;12.47;;
8654;SDS011;13500;52.514;13.462;2024-03-07T14:30:05;15.83;;;12.67;;
8654;SDS011;13500;52.514;13.462;2024-03-07T14:32:41;16.10;;;13.90;;
8654;SDS011;13500;52.514;13.462;2024-03-07T14:35:17;17.37;;;13.00;;
8654;SDS011;13500;52.514;13.462;2024-03-07T14:37:49;16.20;;;12.80;;
8654;SDS011;13500;52.514;13.462;2024-03-07T14:40:23;16.50;;;13.47;;
8654;SDS011;13500;52.514;13.462;2024-03-07T14:42:54;15.23;;;12.87;;
8654;SDS011;13500;52.514;13.462;2024-03-07T14:45:25;19.50;;;13.93;;
8654;SDS011;13500;52.514;13.462;2024-03-07T14:47:56;16.33;;;13.37;;